sensor_id;sensor_type;location;lat;lon;timestamp;P1;durP1;ratioP1;P2;durP2;ratioP2
25341;SDS011;13298;48.792;9.154;2023-07-09T00:02:24;6.13;;;3.78;;
25341;SDS011;13298;48.792;9.154;2023-07-09T00:04:51;6.75;;;4.18;;
25341;SDS011;13298;48.792;9.154;2023-07-09T00:07:24;5.75;;;4.25;;
25341;SDS011;13298;48.792;9.154;2023-07-09T00:09:54;6.32;;;3.80;;
25341;SDS011;13298;48.792;9.154;2023-07-09T00:12:20;7.57;;;4.50;;
25341;SDS011;13298;48.792;9.154;2023-07-09T00:14:46;5.32;;;4.10;;
25341;SDS011;13298;48.792;9.154;2023-07-09T00:17:21;5.38;;;3.97;;
25341;SDS011;13298;48.792;9.154;2023-07-09T00:19:56;4.88;;;3.45;;
25341;SDS011;13298;48.792;9.154;2023-07-09T00:22:22;6.60;;;4.05;;
25341;SDS011;13298;48.792;9.154;2023-07-09T00:24:49;4.97;;;3.78;;
25341;SDS011;13298;48.792;9.154;2023-07-09T00:27:19;6.70;;;3.97;;
25341;SDS011;13298;48.792;9.154;2023-07-09T00:29:47;6.90;;;4.30;;
25341;SDS011;13298;48.792;9.154;2023-07-09T00:32:13;7.85;;;4.40;;
25341;SDS011;13298;48.792;9.154;2023-07-09T00:34:42;7.68;;;4.90;;
25341;SDS011;13298;48.792;9.154;2023-07-09T00:37:13;7.25;;;4.60;;
25341;SDS011;13298;48.792;9.154;2023-07-09T00:39:41;6.97;;;4.13;;
25341;SDS011;13298;48.792;9.154;2023-07-09T00:42:17;6.93;;;4.30;;
25341;SDS011;13298;48.792;9.154;2023-07-09T00:44:46;4.70;;;3.50;;
25341;SDS011;13298;48.792;9.154;2023-07-09T00:47:26;7.30;;;3.75;;
25341;SDS011;13298;48.792;9.154;2023-07-09T00:52:54;6.30;;;3.88;;
25341;SDS011;13298;48.792;9.154;2023-07-09T00:55:25;6.82;;;3.75;;
25341;SDS011;13298;48.792;9.154;2023-07-09T00:57:58;5.00;;;3.70;;
25341;SDS011;13298;48.792;9.154;2023-07-09T01:00:34;5.45;;;3.72;;
25341;SDS011;13298;48.792;9.154;2023-07-09T01:03:11;6.13;;;3.72;;
25341;SDS011;13298;48.792;9.154;2023-07-09T01:05:47;5.55;;;3.95;;
25341;SDS011;13298;48.792;9.154;2023-07-09T01:08:16;5.65;;;3.58;;
25341;SDS011;13298;48.792;9.154;2023-07-09T01:10:44;6.03;;;4.38;;
25341;SDS011;13298;48.792;9.154;2023-07-09T01:13:10;4.13;;;3.50;;
25341;SDS011;13298;48.792;9.154;2023-07-09T01:15:36;4.80;;;3.30;;
25341;SDS011;13298;48.792;9.154;2023-07-09T01:18:04;5.00;;;3.60;;
25341;SDS011;13298;48.792;9.154;2023-07-09T01:20:30;5.15;;;3.60;;
25341;SDS011;13298;48.792;9.154;2023-07-09T01:22:56;6.82;;;3.28;;
25341;SDS011;13298;48.792;9.154;2023-07-09T01:25:26;5.93;;;3.90;;
25341;SDS011;13298;48.792;9.154;2023-07-09T01:27:53;4.15;;;3.25;;
25341;SDS011;13298;48.792;9.154;2023-07-09T01:30:35;5.40;;;3.33;;
25341;SDS011;13298;48.792;9.154;2023-07-09T01:33:04;5.72;;;3.42;;
25341;SDS011;13298;48.792;9.154;2023-07-09T01:35:31;6.68;;;3.70;;
25341;SDS011;13298;48.792;9.154;2023-07-09T01:38:01;5.35;;;3.58;;
25341;SDS011;13298;48.792;9.154;2023-07-09T01:40:27;5.63;;;3.33;;
25341;SDS011;13298;48.792;9.154;2023-07-09T01:42:54;6.80;;;4.13;;
25341;SDS011;13298;48.792;9.154;2023-07-09T01:45:23;6.22;;;4.30;;
25341;SDS011;13298;48.792;9.154;2023-07-09T01:47:49;6.55;;;4.18;;
25341;SDS011;13298;48.792;9.154;2023-07-09T01:50:14;6.75;;;4.03;;
25341;SDS011;13298;48.792;9.154;2023-07-09T01:52:41;5.70;;;4.10;;
25341;SDS011;13298;48.792;9.154;2023-07-09T01:55:12;5.15;;;4.18;;
25341;SDS011;13298;48.792;9.154;2023-07-09T01:57:42;8.30;;;4.65;;
25341;SDS011;13298;48.792;9.154;2023-07-09T02:00:10;6.75;;;4.13;;
25341;SDS011;13298;48.792;9.154;2023-07-09T02:02:42;7.38;;;4.20;;
25341;SDS011;13298;48.792;9.154;2023-07-09T02:05:17;9.00;;;4.00;;
25341;SDS011;13298;48.792;9.154;2023-07-09T02:07:46;4.32;;;3.50;;
25341;SDS011;13298;48.792;9.154;2023-07-09T02:10:12;4.82;;;3.60;;
25341;SDS011;13298;48.792;9.154;2023-07-09T02:12:41;5.10;;;4.22;;
25341;SDS011;13298;48.792;9.154;2023-07-09T02:15:07;5.13;;;3.85;;
25341;SDS011;13298;48.792;9.154;2023-07-09T02:17:33;5.57;;;3.13;;
25341;SDS011;13298;48.792;9.154;2023-07-09T02:19:59;5.55;;;4.10;;
25341;SDS011;13298;48.792;9.154;2023-07-09T02:22:25;6.40;;;4.13;;
25341;SDS011;13298;48.792;9.154;2023-07-09T02:24:50;4.63;;;3.25;;
25341;SDS011;13298;48.792;9.154;2023-07-09T02:27:19;4.32;;;3.17;;
25341;SDS011;13298;48.792;9.154;2023-07-09T02:29:45;4.05;;;3.10;;
25341;SDS011;13298;48.792;9.154;2023-07-09T02:32:13;4.45;;;3.10;;
25341;SDS011;13298;48.792;9.154;2023-07-09T02:34:47;6.22;;;3.40;;
25341;SDS011;13298;48.792;9.154;2023-07-09T02:37:14;5.03;;;3.40;;
25341;SDS011;13298;48.792;9.154;2023-07-09T02:39:42;5.65;;;3.20;;
25341;SDS011;13298;48.792;9.154;2023-07-09T02:42:09;6.50;;;3.42;;
25341;SDS011;13298;48.792;9.154;2023-07-09T02:44:39;6.20;;;3.15;;
25341;SDS011;13298;48.792;9.154;2023-07-09T02:47:06;5.05;;;3.10;;
25341;SDS011;13298;48.792;9.154;2023-07-09T02:49:32;4.07;;;2.90;;
25341;SDS011;13298;48.792;9.154;2023-07-09T02:51:57;4.90;;;3.22;;
25341;SDS011;13298;48.792;9.154;2023-07-09T02:54:23;5.55;;;3.13;;
25341;SDS011;13298;48.792;9.154;2023-07-09T02:56:49;5.28;;;3.05;;
25341;SDS011;13298;48.792;9.154;2023-07-09T02:59:14;4.65;;;3.38;;
25341;SDS011;13298;48.792;9.154;2023-07-09T03:01:40;4.38;;;2.95;;
25341;SDS011;13298;48.792;9.154;2023-07-09T03:04:06;4.88;;;3.30;;
25341;SDS011;13298;48.792;9.154;2023-07-09T03:06:33;4.80;;;2.95;;
25341;SDS011;13298;48.792;9.154;2023-07-09T03:09:01;5.95;;;3.50;;
25341;SDS011;13298;48.792;9.154;2023-07-09T03:11:29;5.25;;;3.42;;
25341;SDS011;13298;48.792;9.154;2023-07-09T03:13:56;6.45;;;3.30;;
25341;SDS011;13298;48.792;9.154;2023-07-09T03:16:26;4.25;;;3.10;;
25341;SDS011;13298;48.792;9.154;2023-07-09T03:18:53;4.75;;;3.10;;
25341;SDS011;13298;48.792;9.154;2023-07-09T03:21:19;8.70;;;3.58;;
25341;SDS011;13298;48.792;9.154;2023-07-09T03:23:49;5.05;;;3.28;;
25341;SDS011;13298;48.792;9.154;2023-07-09T03:26:16;4.70;;;3.35;;
25341;SDS011;13298;48.792;9.154;2023-07-09T03:28:42;4.90;;;3.50;;
25341;SDS011;13298;48.792;9.154;2023-07-09T03:31:08;6.60;;;3.40;;
25341;SDS011;13298;48.792;9.154;2023-07-09T03:33:33;4.03;;;3.28;;
25341;SDS011;13298;48.792;9.154;2023-07-09T03:35:59;4.85;;;3.50;;
25341;SDS011;13298;48.792;9.154;2023-07-09T03:38:25;6.05;;;3.47;;
25341;SDS011;13298;48.792;9.154;2023-07-09T03:40:51;5.30;;;3.42;;
25341;SDS011;13298;48.792;9.154;2023-07-09T03:43:17;4.70;;;3.58;;
25341;SDS011;13298;48.792;9.154;2023-07-09T03:45:43;5.07;;;3.60;;
25341;SDS011;13298;48.792;9.154;2023-07-09T03:48:10;4.15;;;3.15;;
25341;SDS011;13298;48.792;9.154;2023-07-09T03:50:36;6.18;;;3.40;;
25341;SDS011;13298;48.792;9.154;2023-07-09T03:53:01;4.95;;;3.38;;
25341;SDS011;13298;48.792;9.154;2023-07-09T03:55:27;4.70;;;3.10;;
25341;SDS011;13298;48.792;9.154;2023-07-09T03:57:53;4.93;;;3.28;;
25341;SDS011;13298;48.792;9.154;2023-07-09T04:00:20;5.90;;;3.22;;
25341;SDS011;13298;48.792;9.154;2023-07-09T04:02:46;5.53;;;3.67;;
25341;SDS011;13298;48.792;9.154;2023-07-09T04:05:13;6.13;;;3.25;;
25341;SDS011;13298;48.792;9.154;2023-07-09T04:07:39;5.50;;;3.55;;
25341;SDS011;13298;48.792;9.154;2023-07-09T04:10:05;6.32;;;3.63;;
25341;SDS011;13298;48.792;9.154;2023-07-09T04:12:31;4.90;;;3.22;;
25341;SDS011;13298;48.792;9.154;2023-07-09T04:14:57;9.23;;;3.50;;
25341;SDS011;13298;48.792;9.154;2023-07-09T04:17:23;6.35;;;3.42;;
25341;SDS011;13298;48.792;9.154;2023-07-09T04:19:50;4.70;;;3.25;;
25341;SDS011;13298;48.792;9.154;2023-07-09T04:22:16;6.60;;;3.53;;
25341;SDS011;13298;48.792;9.154;2023-07-09T04:24:42;4.25;;;3.10;;
25341;SDS011;13298;48.792;9.154;2023-07-09T04:27:08;5.70;;;3.78;;
25341;SDS011;13298;48.792;9.154;2023-07-09T04:29:34;5.57;;;3.67;;
25341;SDS011;13298;48.792;9.154;2023-07-09T04:32:00;5.78;;;3.42;;
25341;SDS011;13298;48.792;9.154;2023-07-09T04:34:46;5.13;;;3.50;;
25341;SDS011;13298;48.792;9.154;2023-07-09T04:37:13;6.60;;;3.45;;
25341;SDS011;13298;48.792;9.154;2023-07-09T04:39:41;5.25;;;3.15;;
25341;SDS011;13298;48.792;9.154;2023-07-09T04:42:11;4.80;;;3.30;;
25341;SDS011;13298;48.792;9.154;2023-07-09T04:44:39;6.13;;;3.28;;
25341;SDS011;13298;48.792;9.154;2023-07-09T04:47:05;4.90;;;3.30;;
25341;SDS011;13298;48.792;9.154;2023-07-09T04:49:31;5.32;;;3.60;;
25341;SDS011;13298;48.792;9.154;2023-07-09T04:51:58;5.55;;;3.20;;
25341;SDS011;13298;48.792;9.154;2023-07-09T04:54:24;6.85;;;3.30;;
25341;SDS011;13298;48.792;9.154;2023-07-09T04:56:51;6.47;;;3.33;;
25341;SDS011;13298;48.792;9.154;2023-07-09T04:59:17;6.18;;;3.88;;
25341;SDS011;13298;48.792;9.154;2023-07-09T05:01:43;5.57;;;3.60;;
25341;SDS011;13298;48.792;9.154;2023-07-09T05:04:09;4.78;;;3.03;;
25341;SDS011;13298;48.792;9.154;2023-07-09T05:06:35;5.43;;;3.47;;
25341;SDS011;13298;48.792;9.154;2023-07-09T05:09:00;5.63;;;3.35;;
25341;SDS011;13298;48.792;9.154;2023-07-09T05:11:26;3.53;;;2.83;;
25341;SDS011;13298;48.792;9.154;2023-07-09T05:13:52;5.35;;;3.58;;
25341;SDS011;13298;48.792;9.154;2023-07-09T05:16:18;4.50;;;3.30;;
25341;SDS011;13298;48.792;9.154;2023-07-09T05:18:44;6.53;;;3.50;;
25341;SDS011;13298;48.792;9.154;2023-07-09T05:21:10;5.13;;;3.25;;
25341;SDS011;13298;48.792;9.154;2023-07-09T05:23:36;5.65;;;3.17;;
25341;SDS011;13298;48.792;9.154;2023-07-09T05:26:02;4.63;;;2.97;;
25341;SDS011;13298;48.792;9.154;2023-07-09T05:28:30;6.68;;;3.60;;
25341;SDS011;13298;48.792;9.154;2023-07-09T05:30:58;5.57;;;3.08;;
25341;SDS011;13298;48.792;9.154;2023-07-09T05:33:24;6.60;;;3.70;;
25341;SDS011;13298;48.792;9.154;2023-07-09T05:35:49;6.15;;;3.53;;
25341;SDS011;13298;48.792;9.154;2023-07-09T05:38:15;11.10;;;3.92;;
25341;SDS011;13298;48.792;9.154;2023-07-09T05:40:41;5.45;;;3.20;;
25341;SDS011;13298;48.792;9.154;2023-07-09T05:43:08;6.97;;;3.40;;
25341;SDS011;13298;48.792;9.154;2023-07-09T05:45:34;6.80;;;3.67;;
25341;SDS011;13298;48.792;9.154;2023-07-09T05:48:00;7.43;;;3.50;;
25341;SDS011;13298;48.792;9.154;2023-07-09T05:50:27;4.63;;;3.60;;
25341;SDS011;13298;48.792;9.154;2023-07-09T05:52:53;4.85;;;3.20;;
25341;SDS011;13298;48.792;9.154;2023-07-09T05:55:19;8.25;;;4.07;;
25341;SDS011;13298;48.792;9.154;2023-07-09T05:57:45;5.35;;;3.50;;
25341;SDS011;13298;48.792;9.154;2023-07-09T06:00:11;4.72;;;3.50;;
25341;SDS011;13298;48.792;9.154;2023-07-09T06:02:38;7.95;;;3.67;;
25341;SDS011;13298;48.792;9.154;2023-07-09T06:05:04;6.03;;;3.65;;
25341;SDS011;13298;48.792;9.154;2023-07-09T06:07:34;5.20;;;3.67;;
25341;SDS011;13298;48.792;9.154;2023-07-09T06:09:59;4.78;;;3.30;;
25341;SDS011;13298;48.792;9.154;2023-07-09T06:12:25;7.40;;;3.65;;
25341;SDS011;13298;48.792;9.154;2023-07-09T06:14:51;5.35;;;3.17;;
25341;SDS011;13298;48.792;9.154;2023-07-09T06:17:17;6.05;;;3.75;;
25341;SDS011;13298;48.792;9.154;2023-07-09T06:19:42;5.93;;;4.05;;
25341;SDS011;13298;48.792;9.154;2023-07-09T06:22:08;6.68;;;3.47;;
25341;SDS011;13298;48.792;9.154;2023-07-09T06:24:35;4.15;;;3.00;;
25341;SDS011;13298;48.792;9.154;2023-07-09T06:27:01;6.72;;;3.90;;
25341;SDS011;13298;48.792;9.154;2023-07-09T06:29:26;5.93;;;3.85;;
25341;SDS011;13298;48.792;9.154;2023-07-09T06:31:52;5.85;;;3.60;;
25341;SDS011;13298;48.792;9.154;2023-07-09T06:34:18;7.22;;;3.70;;
25341;SDS011;13298;48.792;9.154;2023-07-09T06:36:43;5.18;;;3.95;;
25341;SDS011;13298;48.792;9.154;2023-07-09T06:39:09;7.88;;;3.92;;
25341;SDS011;13298;48.792;9.154;2023-07-09T06:41:35;6.55;;;4.28;;
25341;SDS011;13298;48.792;9.154;2023-07-09T06:44:04;4.25;;;3.33;;
25341;SDS011;13298;48.792;9.154;2023-07-09T06:46:31;5.47;;;3.72;;
25341;SDS011;13298;48.792;9.154;2023-07-09T06:48:57;5.18;;;3.67;;
25341;SDS011;13298;48.792;9.154;2023-07-09T06:51:23;5.18;;;3.70;;
25341;SDS011;13298;48.792;9.154;2023-07-09T06:53:49;4.07;;;3.50;;
25341;SDS011;13298;48.792;9.154;2023-07-09T06:56:16;4.97;;;3.78;;
25341;SDS011;13298;48.792;9.154;2023-07-09T06:58:42;5.25;;;4.07;;
25341;SDS011;13298;48.792;9.154;2023-07-09T07:01:08;3.70;;;3.28;;
25341;SDS011;13298;48.792;9.154;2023-07-09T07:03:36;5.40;;;3.42;;
25341;SDS011;13298;48.792;9.154;2023-07-09T07:06:01;7.25;;;4.22;;
25341;SDS011;13298;48.792;9.154;2023-07-09T07:08:28;5.50;;;3.80;;
25341;SDS011;13298;48.792;9.154;2023-07-09T07:10:57;7.38;;;4.45;;
25341;SDS011;13298;48.792;9.154;2023-07-09T07:13:34;5.15;;;4.03;;
25341;SDS011;13298;48.792;9.154;2023-07-09T07:16:02;7.07;;;4.20;;
25341;SDS011;13298;48.792;9.154;2023-07-09T07:18:30;5.72;;;4.20;;
25341;SDS011;13298;48.792;9.154;2023-07-09T07:20:56;7.85;;;4.03;;
25341;SDS011;13298;48.792;9.154;2023-07-09T07:23:22;7.50;;;4.00;;
25341;SDS011;13298;48.792;9.154;2023-07-09T07:25:49;4.88;;;3.63;;
25341;SDS011;13298;48.792;9.154;2023-07-09T07:28:14;6.63;;;4.20;;
25341;SDS011;13298;48.792;9.154;2023-07-09T07:30:41;5.35;;;3.70;;
25341;SDS011;13298;48.792;9.154;2023-07-09T07:33:07;6.32;;;4.07;;
25341;SDS011;13298;48.792;9.154;2023-07-09T07:35:33;8.35;;;4.30;;
25341;SDS011;13298;48.792;9.154;2023-07-09T07:37:59;6.03;;;3.85;;
25341;SDS011;13298;48.792;9.154;2023-07-09T07:40:25;5.07;;;3.92;;
25341;SDS011;13298;48.792;9.154;2023-07-09T07:42:50;5.28;;;4.20;;
25341;SDS011;13298;48.792;9.154;2023-07-09T07:45:16;7.57;;;4.57;;
25341;SDS011;13298;48.792;9.154;2023-07-09T07:47:42;6.70;;;4.40;;
25341;SDS011;13298;48.792;9.154;2023-07-09T07:50:08;8.13;;;4.20;;
25341;SDS011;13298;48.792;9.154;2023-07-09T07:52:34;5.72;;;3.85;;
25341;SDS011;13298;48.792;9.154;2023-07-09T07:55:02;6.47;;;4.07;;
25341;SDS011;13298;48.792;9.154;2023-07-09T07:57:32;8.00;;;4.18;;
25341;SDS011;13298;48.792;9.154;2023-07-09T07:59:58;6.13;;;4.32;;
25341;SDS011;13298;48.792;9.154;2023-07-09T08:02:23;8.75;;;4.55;;
25341;SDS011;13298;48.792;9.154;2023-07-09T08:04:49;4.70;;;4.25;;
25341;SDS011;13298;48.792;9.154;2023-07-09T08:07:16;5.88;;;3.85;;
25341;SDS011;13298;48.792;9.154;2023-07-09T08:09:44;6.70;;;4.45;;
25341;SDS011;13298;48.792;9.154;2023-07-09T08:12:11;8.10;;;4.55;;
25341;SDS011;13298;48.792;9.154;2023-07-09T08:14:38;5.57;;;3.80;;
25341;SDS011;13298;48.792;9.154;2023-07-09T08:17:06;5.50;;;4.03;;
25341;SDS011;13298;48.792;9.154;2023-07-09T08:19:43;5.10;;;4.10;;
25341;SDS011;13298;48.792;9.154;2023-07-09T08:22:14;5.00;;;3.92;;
25341;SDS011;13298;48.792;9.154;2023-07-09T08:24:40;6.85;;;4.25;;
25341;SDS011;13298;48.792;9.154;2023-07-09T08:27:07;5.72;;;4.13;;
25341;SDS011;13298;48.792;9.154;2023-07-09T08:29:33;5.07;;;4.00;;
25341;SDS011;13298;48.792;9.154;2023-07-09T08:31:59;7.40;;;4.55;;
25341;SDS011;13298;48.792;9.154;2023-07-09T08:34:25;7.82;;;4.30;;
25341;SDS011;13298;48.792;9.154;2023-07-09T08:36:50;6.03;;;4.00;;
25341;SDS011;13298;48.792;9.154;2023-07-09T08:39:16;6.07;;;4.00;;
25341;SDS011;13298;48.792;9.154;2023-07-09T08:41:46;4.55;;;3.95;;
25341;SDS011;13298;48.792;9.154;2023-07-09T08:50:19;6.80;;;4.38;;
25341;SDS011;13298;48.792;9.154;2023-07-09T08:52:50;4.60;;;3.83;;
25341;SDS011;13298;48.792;9.154;2023-07-09T08:55:21;5.43;;;4.40;;
25341;SDS011;13298;48.792;9.154;2023-07-09T08:58:05;6.60;;;4.32;;
25341;SDS011;13298;48.792;9.154;2023-07-09T09:00:55;7.32;;;4.28;;
25341;SDS011;13298;48.792;9.154;2023-07-09T09:03:27;6.43;;;4.30;;
25341;SDS011;13298;48.792;9.154;2023-07-09T09:06:11;7.55;;;3.88;;
25341;SDS011;13298;48.792;9.154;2023-07-09T09:08:45;6.22;;;4.15;;
25341;SDS011;13298;48.792;9.154;2023-07-09T09:11:45;7.25;;;4.40;;
25341;SDS011;13298;48.792;9.154;2023-07-09T09:14:26;5.53;;;4.45;;
25341;SDS011;13298;48.792;9.154;2023-07-09T09:16:59;5.63;;;3.92;;
25341;SDS011;13298;48.792;9.154;2023-07-09T09:19:31;5.07;;;4.00;;
25341;SDS011;13298;48.792;9.154;2023-07-09T09:22:08;7.18;;;4.10;;
25341;SDS011;13298;48.792;9.154;2023-07-09T09:24:38;6.32;;;4.32;;
25341;SDS011;13298;48.792;9.154;2023-07-09T09:27:20;6.43;;;4.43;;
25341;SDS011;13298;48.792;9.154;2023-07-09T09:29:46;4.97;;;4.10;;
25341;SDS011;13298;48.792;9.154;2023-07-09T09:32:18;5.72;;;4.22;;
25341;SDS011;13298;48.792;9.154;2023-07-09T09:34:53;5.30;;;3.90;;
25341;SDS011;13298;48.792;9.154;2023-07-09T09:37:24;6.10;;;4.45;;
25341;SDS011;13298;48.792;9.154;2023-07-09T09:39:56;5.15;;;4.22;;
25341;SDS011;13298;48.792;9.154;2023-07-09T09:42:24;6.28;;;4.20;;
25341;SDS011;13298;48.792;9.154;2023-07-09T09:44:53;7.05;;;4.05;;
25341;SDS011;13298;48.792;9.154;2023-07-09T09:47:20;6.95;;;4.10;;
25341;SDS011;13298;48.792;9.154;2023-07-09T09:49:46;7.03;;;4.07;;
25341;SDS011;13298;48.792;9.154;2023-07-09T09:52:13;7.00;;;4.07;;
25341;SDS011;13298;48.792;9.154;2023-07-09T09:54:41;7.05;;;4.22;;
25341;SDS011;13298;48.792;9.154;2023-07-09T09:57:17;7.18;;;3.92;;
25341;SDS011;13298;48.792;9.154;2023-07-09T09:59:49;6.68;;;4.43;;
25341;SDS011;13298;48.792;9.154;2023-07-09T10:02:16;6.35;;;4.00;;
25341;SDS011;13298;48.792;9.154;2023-07-09T10:04:46;5.90;;;3.38;;
25341;SDS011;13298;48.792;9.154;2023-07-09T10:07:21;5.53;;;3.20;;
25341;SDS011;13298;48.792;9.154;2023-07-09T10:09:54;6.20;;;3.63;;
25341;SDS011;13298;48.792;9.154;2023-07-09T10:15:29;7.75;;;3.88;;
25341;SDS011;13298;48.792;9.154;2023-07-09T10:27:17;5.63;;;2.83;;
25341;SDS011;13298;48.792;9.154;2023-07-09T10:30:00;7.85;;;3.63;;
25341;SDS011;13298;48.792;9.154;2023-07-09T10:32:58;7.93;;;3.38;;
25341;SDS011;13298;48.792;9.154;2023-07-09T10:35:37;5.20;;;3.47;;
25341;SDS011;13298;48.792;9.154;2023-07-09T10:41:20;5.45;;;3.15;;
25341;SDS011;13298;48.792;9.154;2023-07-09T10:43:50;4.38;;;3.28;;
25341;SDS011;13298;48.792;9.154;2023-07-09T10:46:25;4.97;;;3.13;;
25341;SDS011;13298;48.792;9.154;2023-07-09T10:48:54;4.63;;;3.22;;
25341;SDS011;13298;48.792;9.154;2023-07-09T10:51:23;6.78;;;3.47;;
25341;SDS011;13298;48.792;9.154;2023-07-09T10:53:58;6.20;;;3.40;;
25341;SDS011;13298;48.792;9.154;2023-07-09T10:56:41;6.07;;;3.63;;
25341;SDS011;13298;48.792;9.154;2023-07-09T10:59:16;6.03;;;3.30;;
25341;SDS011;13298;48.792;9.154;2023-07-09T11:04:47;8.55;;;3.67;;
25341;SDS011;13298;48.792;9.154;2023-07-09T11:07:19;5.57;;;3.42;;
25341;SDS011;13298;48.792;9.154;2023-07-09T11:09:59;5.97;;;3.67;;
25341;SDS011;13298;48.792;9.154;2023-07-09T11:12:32;6.93;;;3.42;;
25341;SDS011;13298;48.792;9.154;2023-07-09T11:15:06;5.68;;;3.60;;
25341;SDS011;13298;48.792;9.154;2023-07-09T11:17:47;5.88;;;3.40;;
25341;SDS011;13298;48.792;9.154;2023-07-09T11:20:27;6.65;;;3.50;;
25341;SDS011;13298;48.792;9.154;2023-07-09T11:23:01;6.47;;;3.45;;
25341;SDS011;13298;48.792;9.154;2023-07-09T11:28:39;6.68;;;4.05;;
25341;SDS011;13298;48.792;9.154;2023-07-09T11:31:07;9.00;;;3.70;;
25341;SDS011;13298;48.792;9.154;2023-07-09T11:33:47;6.43;;;3.92;;
25341;SDS011;13298;48.792;9.154;2023-07-09T11:36:25;6.40;;;3.83;;
25341;SDS011;13298;48.792;9.154;2023-07-09T11:38:53;8.88;;;4.55;;
25341;SDS011;13298;48.792;9.154;2023-07-09T11:41:38;7.70;;;4.00;;
25341;SDS011;13298;48.792;9.154;2023-07-09T11:44:12;7.53;;;4.15;;
25341;SDS011;13298;48.792;9.154;2023-07-09T11:46:44;7.28;;;3.95;;
25341;SDS011;13298;48.792;9.154;2023-07-09T11:49:24;9.45;;;4.55;;
25341;SDS011;13298;48.792;9.154;2023-07-09T11:51:55;6.80;;;4.60;;
25341;SDS011;13298;48.792;9.154;2023-07-09T11:54:27;11.57;;;4.43;;
25341;SDS011;13298;48.792;9.154;2023-07-09T11:56:59;8.37;;;4.20;;
25341;SDS011;13298;48.792;9.154;2023-07-09T11:59:27;10.13;;;4.38;;
25341;SDS011;13298;48.792;9.154;2023-07-09T12:01:53;9.05;;;4.30;;
25341;SDS011;13298;48.792;9.154;2023-07-09T12:04:25;6.30;;;4.07;;
25341;SDS011;13298;48.792;9.154;2023-07-09T12:06:59;6.63;;;4.03;;
25341;SDS011;13298;48.792;9.154;2023-07-09T12:09:30;8.52;;;4.43;;
25341;SDS011;13298;48.792;9.154;2023-07-09T12:12:03;11.60;;;4.43;;
25341;SDS011;13298;48.792;9.154;2023-07-09T12:14:40;9.80;;;5.00;;
25341;SDS011;13298;48.792;9.154;2023-07-09T12:17:07;9.50;;;4.35;;
25341;SDS011;13298;48.792;9.154;2023-07-09T12:19:34;5.22;;;3.67;;
25341;SDS011;13298;48.792;9.154;2023-07-09T12:22:00;6.68;;;3.85;;
25341;SDS011;13298;48.792;9.154;2023-07-09T12:24:27;8.50;;;4.20;;
25341;SDS011;13298;48.792;9.154;2023-07-09T12:27:00;6.53;;;3.90;;
25341;SDS011;13298;48.792;9.154;2023-07-09T12:29:29;10.05;;;3.90;;
25341;SDS011;13298;48.792;9.154;2023-07-09T12:32:02;8.10;;;3.80;;
25341;SDS011;13298;48.792;9.154;2023-07-09T12:34:36;8.73;;;3.92;;
25341;SDS011;13298;48.792;9.154;2023-07-09T12:37:01;11.73;;;4.50;;
25341;SDS011;13298;48.792;9.154;2023-07-09T12:39:29;7.25;;;3.80;;
25341;SDS011;13298;48.792;9.154;2023-07-09T12:42:01;7.90;;;3.88;;
25341;SDS011;13298;48.792;9.154;2023-07-09T12:44:29;7.50;;;4.45;;
25341;SDS011;13298;48.792;9.154;2023-07-09T12:47:00;7.57;;;3.95;;
25341;SDS011;13298;48.792;9.154;2023-07-09T12:49:28;6.43;;;4.40;;
25341;SDS011;13298;48.792;9.154;2023-07-09T12:52:02;7.10;;;4.50;;
25341;SDS011;13298;48.792;9.154;2023-07-09T12:54:38;10.07;;;4.50;;
25341;SDS011;13298;48.792;9.154;2023-07-09T12:57:10;6.32;;;4.00;;
25341;SDS011;13298;48.792;9.154;2023-07-09T12:59:42;5.72;;;3.70;;
25341;SDS011;13298;48.792;9.154;2023-07-09T13:04:43;8.00;;;3.92;;
25341;SDS011;13298;48.792;9.154;2023-07-09T13:12:29;8.65;;;4.13;;
25341;SDS011;13298;48.792;9.154;2023-07-09T13:14:57;8.93;;;3.53;;
25341;SDS011;13298;48.792;9.154;2023-07-09T13:17:27;6.25;;;3.60;;
25341;SDS011;13298;48.792;9.154;2023-07-09T13:19:55;7.53;;;4.18;;
25341;SDS011;13298;48.792;9.154;2023-07-09T13:22:21;5.82;;;4.10;;
25341;SDS011;13298;48.792;9.154;2023-07-09T13:24:47;10.05;;;4.10;;
25341;SDS011;13298;48.792;9.154;2023-07-09T13:27:14;6.57;;;3.78;;
25341;SDS011;13298;48.792;9.154;2023-07-09T13:29:41;9.52;;;4.13;;
25341;SDS011;13298;48.792;9.154;2023-07-09T13:32:11;6.45;;;4.10;;
25341;SDS011;13298;48.792;9.154;2023-07-09T13:34:39;6.63;;;3.50;;
25341;SDS011;13298;48.792;9.154;2023-07-09T13:37:08;7.43;;;4.20;;
25341;SDS011;13298;48.792;9.154;2023-07-09T13:39:37;9.73;;;4.22;;
25341;SDS011;13298;48.792;9.154;2023-07-09T13:42:04;8.93;;;3.78;;
25341;SDS011;13298;48.792;9.154;2023-07-09T13:44:36;8.93;;;4.53;;
25341;SDS011;13298;48.792;9.154;2023-07-09T13:47:02;8.07;;;4.90;;
25341;SDS011;13298;48.792;9.154;2023-07-09T13:49:27;6.13;;;4.10;;
25341;SDS011;13298;48.792;9.154;2023-07-09T13:51:54;6.65;;;3.95;;
25341;SDS011;13298;48.792;9.154;2023-07-09T13:54:25;7.00;;;3.95;;
25341;SDS011;13298;48.792;9.154;2023-07-09T13:57:00;7.85;;;3.92;;
25341;SDS011;13298;48.792;9.154;2023-07-09T13:59:27;8.73;;;3.97;;
25341;SDS011;13298;48.792;9.154;2023-07-09T14:01:55;7.35;;;3.70;;
25341;SDS011;13298;48.792;9.154;2023-07-09T14:04:23;7.35;;;3.90;;
25341;SDS011;13298;48.792;9.154;2023-07-09T14:06:50;6.05;;;4.22;;
25341;SDS011;13298;48.792;9.154;2023-07-09T14:09:16;9.88;;;3.92;;
25341;SDS011;13298;48.792;9.154;2023-07-09T14:11:46;7.65;;;3.85;;
25341;SDS011;13298;48.792;9.154;2023-07-09T14:14:16;5.50;;;3.72;;
25341;SDS011;13298;48.792;9.154;2023-07-09T14:16:48;7.07;;;4.15;;
25341;SDS011;13298;48.792;9.154;2023-07-09T14:19:16;9.80;;;4.18;;
25341;SDS011;13298;48.792;9.154;2023-07-09T14:21:45;6.60;;;3.95;;
25341;SDS011;13298;48.792;9.154;2023-07-09T14:24:20;6.40;;;4.15;;
25341;SDS011;13298;48.792;9.154;2023-07-09T14:26:50;9.35;;;4.03;;
25341;SDS011;13298;48.792;9.154;2023-07-09T14:29:17;8.90;;;4.40;;
25341;SDS011;13298;48.792;9.154;2023-07-09T14:31:44;5.38;;;3.88;;
25341;SDS011;13298;48.792;9.154;2023-07-09T14:36:58;7.88;;;3.80;;
25341;SDS011;13298;48.792;9.154;2023-07-09T14:39:28;8.00;;;4.28;;
25341;SDS011;13298;48.792;9.154;2023-07-09T14:41:54;6.82;;;4.22;;
25341;SDS011;13298;48.792;9.154;2023-07-09T14:44:22;10.02;;;4.05;;
25341;SDS011;13298;48.792;9.154;2023-07-09T14:46:57;6.60;;;3.97;;
25341;SDS011;13298;48.792;9.154;2023-07-09T14:49:25;5.68;;;4.00;;
25341;SDS011;13298;48.792;9.154;2023-07-09T14:51:52;7.88;;;4.25;;
25341;SDS011;13298;48.792;9.154;2023-07-09T14:54:26;7.95;;;3.83;;
25341;SDS011;13298;48.792;9.154;2023-07-09T14:56:54;7.20;;;4.07;;
25341;SDS011;13298;48.792;9.154;2023-07-09T14:59:22;6.88;;;4.03;;
25341;SDS011;13298;48.792;9.154;2023-07-09T15:01:48;5.30;;;3.72;;
25341;SDS011;13298;48.792;9.154;2023-07-09T15:06:50;7.80;;;4.00;;
25341;SDS011;13298;48.792;9.154;2023-07-09T15:09:19;4.87;;;3.70;;
25341;SDS011;13298;48.792;9.154;2023-07-09T15:11:48;5.72;;;3.78;;
25341;SDS011;13298;48.792;9.154;2023-07-09T15:14:21;5.47;;;4.47;;
25341;SDS011;13298;48.792;9.154;2023-07-09T15:16:49;9.18;;;4.13;;
25341;SDS011;13298;48.792;9.154;2023-07-09T15:19:18;5.20;;;3.63;;
25341;SDS011;13298;48.792;9.154;2023-07-09T15:21:46;7.63;;;3.55;;
25341;SDS011;13298;48.792;9.154;2023-07-09T15:24:24;5.15;;;3.50;;
25341;SDS011;13298;48.792;9.154;2023-07-09T15:26:57;5.70;;;3.33;;
25341;SDS011;13298;48.792;9.154;2023-07-09T15:29:25;8.45;;;3.88;;
25341;SDS011;13298;48.792;9.154;2023-07-09T15:31:51;5.20;;;3.60;;
25341;SDS011;13298;48.792;9.154;2023-07-09T15:34:17;5.63;;;3.70;;
25341;SDS011;13298;48.792;9.154;2023-07-09T15:36:48;5.00;;;3.35;;
25341;SDS011;13298;48.792;9.154;2023-07-09T15:39:17;8.77;;;3.65;;
25341;SDS011;13298;48.792;9.154;2023-07-09T15:41:45;7.88;;;3.70;;
25341;SDS011;13298;48.792;9.154;2023-07-09T15:44:12;6.38;;;3.83;;